Time;durP1;ratioP1;P1;durP2;ratioP2;P2;SDS_P1;SDS_P2;PMS_P1;PMS_P2;Temp;Humidity;BMP_temperature;BMP_pressure;BME280_temperature;BME280_humidity;BME280_pressure;Samples;Min_cycle;Max_cycle;Signal;HPM_P1;HPM_P2
2021/11/20 00:00:10;;;;;;;31.15;27.95;;;;;22.30;101774.00;;;;2048240;29;20220;-66
2021/11/20 00:01:13;;;;;;;31.80;27.67;;;;;22.30;101770.00;;;;2045164;29;20216;-66
2021/11/20 00:02:16;;;;;;;28.77;25.90;;;;;22.30;101780.00;;;;2047870;28;20216;-66
2021/11/20 00:03:17;;;;;;;30.42;27.13;;;;;22.30;101772.00;;;;2048101;28;20219;-67
2021/11/20 00:04:17;;;;;;;29.37;26.37;;;;;22.30;101766.00;;;;2048131;28;20636;-67
2021/11/20 00:05:21;;;;;;;31.10;27.87;;;;;22.20;101768.00;;;;2047463;28;20216;-66
2021/11/20 00:06:24;;;;;;;28.65;25.70;;;;;22.20;101768.00;;;;2047783;28;20224;-66
2021/11/20 00:07:24;;;;;;;28.63;25.60;;;;;22.20;101765.00;;;;2048200;28;20578;-66
2021/11/20 00:08:25;;;;;;;27.80;25.00;;;;;22.20;101761.00;;;;2048251;28;20208;-66
2021/11/20 00:09:27;;;;;;;30.63;27.33;;;;;22.20;101763.00;;;;2047363;28;20240;-66
2021/11/20 00:10:29;;;;;;;27.90;25.10;;;;;22.20;101760.00;;;;2048145;28;20208;-66
2021/11/20 00:11:31;;;;;;;27.42;24.52;;;;;22.20;101766.00;;;;2048153;28;20219;-66
2021/11/20 00:12:31;;;;;;;28.95;25.92;;;;;22.20;101766.00;;;;2048346;28;20204;-66
2021/11/20 00:13:32;;;;;;;28.33;25.40;;;;;22.20;101754.00;;;;2047931;28;20239;-66
2021/11/20 00:14:32;;;;;;;27.47;24.67;;;;;22.20;101764.00;;;;2047299;28;20239;-67
2021/11/20 00:15:33;;;;;;;26.17;23.37;;;;;22.20;101761.00;;;;2047850;28;20267;-66
2021/11/20 00:16:33;;;;;;;29.27;26.20;;;;;22.20;101760.00;;;;2047581;28;20228;-67
2021/11/20 00:17:33;;;;;;;26.57;23.70;;;;;22.20;101757.00;;;;2047975;28;20300;-67
2021/11/20 00:18:34;;;;;;;25.80;23.13;;;;;22.20;101752.00;;;;2047423;28;20710;-67
2021/11/20 00:19:34;;;;;;;26.47;23.73;;;;;22.20;101759.00;;;;2048206;28;21275;-65
2021/11/20 00:20:38;;;;;;;25.73;22.97;;;;;22.20;101758.00;;;;2048079;28;20239;-65
2021/11/20 00:22:03;;;;;;;26.13;23.52;;;;;22.20;101763.00;;;;2048202;28;20303;-66
2021/11/20 00:23:03;;;;;;;26.42;23.10;;;;;22.20;101766.00;;;;2039032;28;20702;-66
2021/11/20 00:24:05;;;;;;;25.23;22.63;;;;;22.20;101763.00;;;;2047828;28;20262;-66
2021/11/20 00:25:09;;;;;;;26.40;23.70;;;;;22.20;101762.00;;;;2043140;28;20671;-66
2021/11/20 00:26:11;;;;;;;25.83;22.60;;;;;22.20;101766.00;;;;2055173;28;20230;-66
2021/11/20 00:27:17;;;;;;;25.70;22.92;;;;;22.20;101762.00;;;;2055698;28;20903;-66
2021/11/20 00:28:28;;;;;;;24.90;22.38;;;;;22.20;101755.00;;;;2051515;28;20298;-66
2021/11/20 00:29:46;;;;;;;24.58;21.73;;;;;22.20;101758.00;;;;2045356;29;20223;-66
2021/11/20 00:30:53;;;;;;;23.77;21.38;;;;;22.20;101763.00;;;;2048444;28;20745;-66
2021/11/20 00:31:57;;;;;;;24.25;21.63;;;;;22.20;101763.00;;;;2055328;28;20736;-66
2021/11/20 00:33:04;;;;;;;24.30;21.90;;;;;22.20;101760.00;;;;2042895;28;20223;-65
2021/11/20 00:34:08;;;;;;;24.20;21.70;;;;;22.10;101757.00;;;;2040407;28;20308;-65
2021/11/20 00:35:11;;;;;;;23.40;21.10;;;;;22.20;101761.00;;;;2037892;28;20703;-66
2021/11/20 00:36:11;;;;;;;24.63;22.02;;;;;22.10;101769.00;;;;2039732;28;20256;-65
2021/11/20 00:37:12;;;;;;;23.17;20.87;;;;;22.10;101768.00;;;;2048011;28;20220;-66
2021/11/20 00:38:12;;;;;;;24.03;21.60;;;;;22.10;101760.00;;;;2048243;28;20228;-66
2021/11/20 00:39:13;;;;;;;24.57;21.93;;;;;22.10;101760.00;;;;2048693;28;20224;-65
2021/11/20 00:40:20;;;;;;;22.98;20.67;;;;;22.10;101760.00;;;;2042302;28;20235;-66
2021/11/20 00:41:23;;;;;;;20.85;18.75;;;;;22.10;101762.00;;;;2049448;28;20220;-66
2021/11/20 00:42:24;;;;;;;23.02;20.83;;;;;22.10;101765.00;;;;2048019;28;20215;-66
2021/11/20 00:43:24;;;;;;;21.47;19.37;;;;;22.10;101761.00;;;;2048122;28;20214;-66
2021/11/20 00:44:25;;;;;;;21.93;19.67;;;;;22.10;101764.00;;;;2047733;28;20212;-66
2021/11/20 00:45:25;;;;;;;22.00;19.77;;;;;22.10;101755.00;;;;2047400;28;20216;-66
2021/11/20 00:46:28;;;;;;;22.10;19.83;;;;;22.10;101759.00;;;;2049866;28;20222;-66
2021/11/20 00:47:28;;;;;;;21.80;19.50;;;;;22.10;101756.00;;;;2054198;28;20200;-65
2021/11/20 00:48:29;;;;;;;22.37;20.30;;;;;22.10;101749.00;;;;2051936;28;20753;-66
2021/11/20 00:49:32;;;;;;;21.43;19.23;;;;;22.10;101752.00;;;;2047794;28;20204;-65
2021/11/20 00:50:34;;;;;;;22.67;20.20;;;;;22.10;101743.00;;;;2048123;28;20220;-65
2021/11/20 00:51:34;;;;;;;22.48;20.27;;;;;22.10;101748.00;;;;2048012;28;20717;-65
2021/11/20 00:52:35;;;;;;;21.73;19.57;;;;;22.10;101753.00;;;;2048104;28;20216;-65
2021/11/20 00:53:35;;;;;;;20.70;18.60;;;;;22.10;101750.00;;;;2047846;28;20216;-65
2021/11/20 00:54:36;;;;;;;21.13;18.90;;;;;22.10;101749.00;;;;2047483;28;20220;-66
2021/11/20 00:55:37;;;;;;;20.50;18.50;;;;;22.10;101753.00;;;;2047907;28;20891;-64
2021/11/20 00:56:37;;;;;;;20.67;18.58;;;;;22.10;101760.00;;;;2047941;28;20215;-65
2021/11/20 00:57:38;;;;;;;20.67;18.67;;;;;22.10;101750.00;;;;2047914;28;20208;-64
2021/11/20 00:58:38;;;;;;;21.63;19.53;;;;;22.10;101755.00;;;;2047846;28;20212;-65
2021/11/20 00:59:39;;;;;;;20.07;18.13;;;;;22.10;101751.00;;;;2047899;28;20213;-65
2021/11/20 01:00:45;;;;;;;20.23;18.23;;;;;22.10;101748.00;;;;2046277;28;20219;-65
2021/11/20 01:01:52;;;;;;;19.75;17.80;;;;;22.10;101746.00;;;;2046703;28;20240;-64
2021/11/20 01:02:52;;;;;;;20.10;18.20;;;;;22.10;101744.00;;;;2056244;28;20226;-65
2021/11/20 01:03:53;;;;;;;18.73;16.83;;;;;22.10;101750.00;;;;2055546;28;20591;-64
2021/11/20 01:04:53;;;;;;;18.70;16.90;;;;;22.10;101748.00;;;;2054929;28;20713;-65
2021/11/20 01:05:53;;;;;;;20.00;18.00;;;;;22.10;101741.00;;;;2055604;28;20225;-64
2021/11/20 01:06:54;;;;;;;19.00;17.10;;;;;22.10;101743.00;;;;2055409;28;20284;-64
2021/11/20 01:07:54;;;;;;;20.50;18.60;;;;;22.00;101730.00;;;;2055645;28;20215;-65
2021/11/20 01:08:55;;;;;;;19.87;17.23;;;;;22.00;101737.00;;;;2055565;28;20640;-65
2021/11/20 01:09:55;;;;;;;19.17;17.27;;;;;22.10;101740.00;;;;2055408;28;20232;-65
2021/11/20 01:10:59;;;;;;;18.77;16.93;;;;;22.10;101740.00;;;;2055453;28;20220;-66
2021/11/20 01:12:03;;;;;;;18.55;16.65;;;;;22.00;101748.00;;;;2052190;28;20216;-65
2021/11/20 01:13:03;;;;;;;19.95;17.95;;;;;22.00;101740.00;;;;2055572;28;20732;-64
2021/11/20 01:14:05;;;;;;;18.53;16.83;;;;;22.00;101742.00;;;;2055580;28;20223;-65
2021/11/20 01:15:08;;;;;;;18.08;16.27;;;;;22.00;101741.00;;;;2054808;28;20227;-65
2021/11/20 01:16:09;;;;;;;18.98;17.05;;;;;22.00;101739.00;;;;2052320;28;20212;-65
2021/11/20 01:17:10;;;;;;;18.77;16.95;;;;;22.00;101751.00;;;;2055728;28;20265;-65
2021/11/20 01:18:10;;;;;;;17.43;15.73;;;;;22.00;101749.00;;;;2055151;28;20270;-65
2021/11/20 01:19:10;;;;;;;17.17;15.43;;;;;22.00;101744.00;;;;2055334;28;20223;-65
2021/11/20 01:20:11;;;;;;;17.90;16.17;;;;;22.00;101735.00;;;;2055506;28;20586;-65
2021/11/20 01:21:12;;;;;;;17.70;15.93;;;;;22.00;101739.00;;;;2055411;28;20643;-66
2021/11/20 01:22:14;;;;;;;18.43;16.53;;;;;22.00;101737.00;;;;2054901;28;20448;-65
2021/11/20 01:23:15;;;;;;;17.20;15.40;;;;;22.00;101738.00;;;;2055604;28;20986;-63
2021/11/20 01:24:15;;;;;;;17.13;15.60;;;;;22.00;101739.00;;;;2051915;28;20224;-64
2021/11/20 01:25:16;;;;;;;18.30;16.63;;;;;22.00;101736.00;;;;2046189;28;20262;-64
2021/11/20 01:26:17;;;;;;;16.80;15.20;;;;;22.00;101733.00;;;;2047324;28;20243;-65
2021/11/20 01:27:17;;;;;;;17.70;15.77;;;;;22.00;101738.00;;;;2046685;28;20220;-65
2021/11/20 01:28:18;;;;;;;17.00;15.40;;;;;22.00;101719.00;;;;2046256;28;20220;-65
2021/11/20 01:29:19;;;;;;;18.43;16.47;;;;;22.00;101726.00;;;;2046639;28;20290;-66
2021/11/20 01:30:19;;;;;;;16.43;14.83;;;;;22.00;101730.00;;;;2046883;28;20220;-65
2021/11/20 01:31:21;;;;;;;17.13;15.40;;;;;22.00;101730.00;;;;2047039;28;20479;-64
2021/11/20 01:32:22;;;;;;;16.77;15.18;;;;;22.00;101732.00;;;;2047453;28;20308;-65
2021/11/20 01:33:22;;;;;;;16.13;14.63;;;;;22.00;101728.00;;;;2047344;28;20227;-65
2021/11/20 01:34:23;;;;;;;16.93;15.33;;;;;22.00;101718.00;;;;2047285;28;20244;-65
2021/11/20 01:35:24;;;;;;;15.80;14.30;;;;;22.00;101723.00;;;;2046869;28;20642;-65
2021/11/20 01:36:28;;;;;;;17.73;15.93;;;;;22.00;101720.00;;;;2047107;28;20219;-65
2021/11/20 01:37:28;;;;;;;18.05;16.15;;;;;22.00;101718.00;;;;2047327;28;20675;-65
2021/11/20 01:38:29;;;;;;;17.70;16.10;;;;;22.00;101718.00;;;;2047448;28;20231;-64
2021/11/20 01:39:32;;;;;;;15.57;14.20;;;;;22.00;101718.00;;;;2045498;28;20212;-65
2021/11/20 01:40:35;;;;;;;15.65;14.20;;;;;21.90;101725.00;;;;2047446;28;20278;-65
2021/11/20 01:41:36;;;;;;;16.98;15.25;;;;;22.00;101721.00;;;;2043609;28;20259;-65
2021/11/20 01:42:36;;;;;;;15.67;14.27;;;;;22.00;101727.00;;;;2047349;28;20220;-65
2021/11/20 01:43:36;;;;;;;16.20;14.63;;;;;22.00;101715.00;;;;2047473;28;20682;-64
2021/11/20 01:44:51;;;;;;;14.97;13.57;;;;;22.00;101707.00;;;;2046754;28;20212;-65
2021/11/20 01:46:12;;;;;;;15.23;13.82;;;;;22.00;101709.00;;;;2044303;28;20304;-65
2021/11/20 01:47:26;;;;;;;15.98;14.48;;;;;22.00;101709.00;;;;2052684;28;20223;-65
2021/11/20 01:49:00;;;;;;;15.50;14.00;;;;;21.80;101714.00;;;;2045481;28;20211;-65
2021/11/20 01:50:07;;;;;;;15.23;13.75;;;;;21.90;101708.00;;;;2047413;28;20933;-65
2021/11/20 01:51:33;;;;;;;15.60;14.10;;;;;21.90;101708.00;;;;2047320;29;20224;-65
2021/11/20 01:52:58;;;;;;;16.45;14.80;;;;;21.90;101709.00;;;;2045481;28;20302;-65
2021/11/20 01:54:16;;;;;;;14.48;13.13;;;;;21.90;101709.00;;;;2054115;28;20218;-65
2021/11/20 01:55:32;;;;;;;15.88;14.40;;;;;21.90;101710.00;;;;2052606;28;20242;-64
2021/11/20 01:56:36;;;;;;;15.77;14.27;;;;;21.90;101696.00;;;;2052967;28;20633;-65
2021/11/20 01:58:19;;;;;;;15.25;13.85;;;;;21.90;101700.00;;;;2046781;28;20262;-65
2021/11/20 01:59:25;;;;;;;15.13;13.63;;;;;21.90;101695.00;;;;2049961;28;20629;-65
2021/11/20 02:00:40;;;;;;;14.52;13.02;;;;;21.90;101698.00;;;;2055291;28;20840;-65
2021/11/20 02:01:45;;;;;;;15.73;14.23;;;;;21.90;101697.00;;;;2042004;29;20212;-65
2021/11/20 02:02:54;;;;;;;13.52;12.32;;;;;21.90;101701.00;;;;2047084;28;20263;-65
2021/11/20 02:04:03;;;;;;;15.43;13.85;;;;;21.90;101688.00;;;;2043721;28;20216;-66
2021/11/20 02:05:29;;;;;;;14.18;12.77;;;;;21.90;101691.00;;;;2045427;28;20216;-66
2021/11/20 02:06:34;;;;;;;15.00;13.50;;;;;21.90;101688.00;;;;2040961;29;20284;-66
2021/11/20 02:07:58;;;;;;;13.98;12.68;;;;;21.90;101685.00;;;;2037678;29;20216;-66
2021/11/20 02:08:58;;;;;;;14.23;12.93;;;;;21.90;101692.00;;;;2046384;29;20216;-66
2021/11/20 02:10:24;;;;;;;15.37;13.70;;;;;21.90;101692.00;;;;2042851;29;20221;-66
2021/11/20 02:11:34;;;;;;;14.57;13.07;;;;;21.90;101691.00;;;;2043855;28;20212;-66
2021/11/20 02:12:44;;;;;;;14.82;13.25;;;;;21.90;101698.00;;;;2039410;28;20217;-65
2021/11/20 02:13:44;;;;;;;14.20;12.80;;;;;21.90;101688.00;;;;2048157;28;20271;-65
2021/11/20 02:14:45;;;;;;;13.90;12.60;;;;;21.90;101682.00;;;;2054959;28;20580;-65
2021/11/20 02:16:01;;;;;;;14.93;13.53;;;;;21.90;101698.00;;;;2045052;28;20245;-65
2021/11/20 02:17:12;;;;;;;13.18;11.95;;;;;21.90;101685.00;;;;2052055;28;20211;-65
2021/11/20 02:18:13;;;;;;;15.73;14.20;;;;;21.90;101687.00;;;;2051733;28;20211;-65
2021/11/20 02:19:25;;;;;;;13.30;12.10;;;;;21.90;101687.00;;;;2055228;28;20287;-66
2021/11/20 02:20:45;;;;;;;13.20;12.00;;;;;21.80;101684.00;;;;2055105;28;20219;-66
2021/11/20 02:21:53;;;;;;;14.23;12.93;;;;;21.90;101681.00;;;;2048419;28;20220;-66
2021/11/20 02:22:54;;;;;;;14.85;13.35;;;;;21.90;101679.00;;;;2039677;29;20209;-66
2021/11/20 02:23:54;;;;;;;15.43;13.93;;;;;21.90;101682.00;;;;2046209;29;20244;-66
2021/11/20 02:24:54;;;;;;;15.40;14.10;;;;;21.80;101675.00;;;;2050568;28;20769;-66
2021/11/20 02:25:54;;;;;;;13.63;12.33;;;;;21.90;101670.00;;;;2047049;29;20899;-65
2021/11/20 02:26:54;;;;;;;14.97;13.57;;;;;21.90;101678.00;;;;2053698;28;20227;-65
2021/11/20 02:27:56;;;;;;;13.97;12.60;;;;;21.90;101669.00;;;;2046842;29;20223;-65
2021/11/20 02:28:57;;;;;;;14.00;12.70;;;;;21.80;101676.00;;;;2047084;28;21103;-65
2021/11/20 02:30:28;;;;;;;13.43;12.18;;;;;21.80;101669.00;;;;2047117;29;20212;-65
2021/11/20 02:31:29;;;;;;;13.57;12.30;;;;;21.80;101678.00;;;;2045615;28;20222;-65
2021/11/20 02:32:29;;;;;;;13.30;12.10;;;;;21.80;101671.00;;;;2039052;28;20243;-65
2021/11/20 02:33:31;;;;;;;12.20;11.00;;;;;21.90;101670.00;;;;2047212;28;20222;-65
2021/11/20 02:34:32;;;;;;;14.65;13.25;;;;;21.80;101661.00;;;;2053580;28;20262;-65
2021/11/20 02:35:38;;;;;;;13.57;12.32;;;;;21.80;101668.00;;;;2053940;28;20220;-66
2021/11/20 02:36:39;;;;;;;13.75;12.55;;;;;21.80;101667.00;;;;2047218;29;20208;-66
2021/11/20 02:37:40;;;;;;;13.03;11.83;;;;;21.80;101670.00;;;;2046956;29;20415;-66
2021/11/20 02:39:01;;;;;;;14.30;12.80;;;;;21.80;101666.00;;;;2047089;29;20215;-66
2021/11/20 02:40:03;;;;;;;13.07;11.93;;;;;21.80;101665.00;;;;2044973;28;20216;-66
2021/11/20 02:41:03;;;;;;;13.38;12.07;;;;;21.80;101666.00;;;;2054884;28;20222;-66
2021/11/20 02:42:06;;;;;;;13.73;12.53;;;;;21.80;101661.00;;;;2056567;28;20314;-65
2021/11/20 02:43:06;;;;;;;12.80;11.68;;;;;21.80;101668.00;;;;2056478;28;20222;-65
2021/11/20 02:44:07;;;;;;;13.13;11.83;;;;;21.80;101659.00;;;;2052942;28;20203;-66
2021/11/20 02:45:22;;;;;;;13.80;12.50;;;;;21.80;101658.00;;;;2055747;28;20239;-66
2021/11/20 02:46:24;;;;;;;13.73;12.43;;;;;21.80;101662.00;;;;2055907;28;20988;-66
2021/11/20 02:47:28;;;;;;;13.38;12.13;;;;;21.80;101661.00;;;;2047721;28;20358;-65
2021/11/20 02:48:29;;;;;;;13.80;12.60;;;;;21.80;101658.00;;;;2047777;28;20566;-66
2021/11/20 02:49:29;;;;;;;11.90;10.87;;;;;21.80;101659.00;;;;2046542;28;20226;-66
2021/11/20 02:50:31;;;;;;;13.63;12.33;;;;;21.80;101653.00;;;;2056166;28;20292;-66
2021/11/20 02:51:34;;;;;;;13.57;12.20;;;;;21.80;101655.00;;;;2052498;28;20250;-66
2021/11/20 02:52:34;;;;;;;13.63;12.32;;;;;21.80;101655.00;;;;2056280;28;20326;-65
2021/11/20 02:53:37;;;;;;;13.93;12.73;;;;;21.80;101654.00;;;;2052582;28;20215;-65
2021/11/20 02:54:37;;;;;;;11.85;10.68;;;;;21.80;101656.00;;;;2053568;28;20250;-65
2021/11/20 02:55:48;;;;;;;12.43;11.43;;;;;21.80;101653.00;;;;2048740;28;20219;-66
2021/11/20 02:56:54;;;;;;;12.80;11.60;;;;;21.80;101654.00;;;;2052277;28;20566;-66
2021/11/20 02:57:55;;;;;;;12.32;11.23;;;;;21.80;101659.00;;;;2055144;28;20254;-65
2021/11/20 02:58:55;;;;;;;12.20;11.20;;;;;21.80;101662.00;;;;2052078;28;20270;-65
2021/11/20 02:59:56;;;;;;;13.67;12.47;;;;;21.80;101650.00;;;;2048025;29;20328;-65
2021/11/20 03:01:01;;;;;;;13.13;11.93;;;;;21.80;101659.00;;;;2048024;29;20216;-66
2021/11/20 03:02:01;;;;;;;12.55;11.35;;;;;21.70;101652.00;;;;2048659;29;20216;-66
2021/11/20 03:03:02;;;;;;;11.70;10.70;;;;;21.80;101651.00;;;;2048009;29;20299;-66
2021/11/20 03:04:06;;;;;;;13.70;12.20;;;;;21.80;101645.00;;;;2047974;29;20318;-66
2021/11/20 03:05:07;;;;;;;12.63;11.52;;;;;21.80;101649.00;;;;2055809;28;20670;-65
2021/11/20 03:06:07;;;;;;;12.23;11.13;;;;;21.70;101650.00;;;;2041568;28;20221;-65
2021/11/20 03:07:08;;;;;;;13.10;11.93;;;;;21.70;101643.00;;;;2047613;28;20219;-66
2021/11/20 03:08:08;;;;;;;13.60;12.30;;;;;21.70;101648.00;;;;2048562;28;20208;-65
2021/11/20 03:09:09;;;;;;;13.13;11.93;;;;;21.80;101653.00;;;;2048210;28;20734;-66
2021/11/20 03:10:10;;;;;;;12.50;11.40;;;;;21.70;101647.00;;;;2048376;28;20216;-65
2021/11/20 03:11:13;;;;;;;13.07;11.90;;;;;21.70;101644.00;;;;2051391;28;20220;-65
2021/11/20 03:12:14;;;;;;;13.18;11.98;;;;;21.70;101645.00;;;;2050870;28;20244;-65
2021/11/20 03:13:15;;;;;;;12.13;11.07;;;;;21.70;101633.00;;;;2048504;28;20220;-66
2021/11/20 03:14:15;;;;;;;12.87;11.57;;;;;21.70;101633.00;;;;2048472;28;20307;-65
2021/11/20 03:15:15;;;;;;;12.60;11.40;;;;;21.70;101641.00;;;;2047644;28;20654;-65
2021/11/20 03:16:16;;;;;;;12.80;11.60;;;;;21.70;101632.00;;;;2048459;28;20216;-66
2021/11/20 03:17:16;;;;;;;12.43;11.33;;;;;21.70;101641.00;;;;2048401;28;20582;-65
2021/11/20 03:18:16;;;;;;;12.50;11.40;;;;;21.80;101628.00;;;;2048436;28;20212;-65
2021/11/20 03:19:17;;;;;;;12.90;11.70;;;;;21.70;101635.00;;;;2048541;28;20294;-66
2021/11/20 03:20:18;;;;;;;13.73;12.32;;;;;21.70;101639.00;;;;2048483;28;20246;-65
2021/11/20 03:21:19;;;;;;;11.70;10.60;;;;;21.70;101640.00;;;;2047618;28;20219;-65
2021/11/20 03:22:23;;;;;;;13.47;12.27;;;;;21.70;101631.00;;;;2047784;28;20710;-65
2021/11/20 03:23:27;;;;;;;12.25;11.13;;;;;21.70;101633.00;;;;2047771;28;20219;-65
2021/11/20 03:24:28;;;;;;;13.00;11.75;;;;;21.70;101622.00;;;;2043994;28;20295;-65
2021/11/20 03:25:29;;;;;;;12.68;11.57;;;;;21.70;101634.00;;;;2047975;28;20611;-65
2021/11/20 03:26:29;;;;;;;12.37;11.30;;;;;21.70;101625.00;;;;2048281;28;20238;-65
2021/11/20 03:27:29;;;;;;;12.37;11.27;;;;;21.70;101624.00;;;;2047360;28;22385;-65
2021/11/20 03:28:30;;;;;;;12.97;11.70;;;;;21.70;101633.00;;;;2048226;28;20247;-65
2021/11/20 03:29:30;;;;;;;12.90;11.80;;;;;21.70;101629.00;;;;2048275;28;20227;-65
2021/11/20 03:30:31;;;;;;;13.07;11.87;;;;;21.70;101624.00;;;;2048351;28;20667;-65
2021/11/20 03:31:31;;;;;;;12.03;10.93;;;;;21.70;101623.00;;;;2048271;28;20236;-65
2021/11/20 03:32:31;;;;;;;12.77;11.57;;;;;21.70;101626.00;;;;2048184;28;20691;-65
2021/11/20 03:33:32;;;;;;;12.97;11.77;;;;;21.70;101625.00;;;;2047014;28;20753;-65
2021/11/20 03:34:32;;;;;;;12.50;11.40;;;;;21.70;101621.00;;;;2047428;28;20589;-65
2021/11/20 03:35:33;;;;;;;11.90;10.90;;;;;21.70;101622.00;;;;2047351;28;20220;-65
2021/11/20 03:36:34;;;;;;;13.47;12.27;;;;;21.70;101623.00;;;;2048004;28;20299;-66
2021/11/20 03:37:35;;;;;;;11.35;10.32;;;;;21.70;101623.00;;;;2047724;28;20227;-66
2021/11/20 03:38:35;;;;;;;13.00;11.90;;;;;21.70;101628.00;;;;2048056;28;20264;-65
2021/11/20 03:39:36;;;;;;;11.97;10.97;;;;;21.70;101631.00;;;;2048328;28;20220;-65
2021/11/20 03:40:36;;;;;;;12.87;11.73;;;;;21.70;101627.00;;;;2048269;28;20266;-65
2021/11/20 03:41:37;;;;;;;12.80;11.60;;;;;21.70;101627.00;;;;2047257;28;20679;-65
2021/11/20 03:42:37;;;;;;;13.40;11.10;;;;;21.70;101624.00;;;;2044336;28;20224;-65
2021/11/20 03:43:38;;;;;;;11.97;10.93;;;;;21.70;101626.00;;;;2048102;28;21021;-65
2021/11/20 03:44:38;;;;;;;11.60;10.50;;;;;21.70;101632.00;;;;2047748;28;20633;-65
2021/11/20 03:45:38;;;;;;;12.50;11.20;;;;;21.70;101624.00;;;;2047452;28;20212;-65
2021/11/20 03:46:39;;;;;;;12.17;11.07;;;;;21.70;101626.00;;;;2047530;28;20232;-65
2021/11/20 03:47:39;;;;;;;12.60;11.40;;;;;21.70;101627.00;;;;2048418;28;20205;-65
2021/11/20 03:48:40;;;;;;;13.40;12.20;;;;;21.70;101623.00;;;;2048297;28;20213;-65
2021/11/20 03:49:42;;;;;;;12.40;11.20;;;;;21.70;101624.00;;;;2048271;28;20219;-65
2021/11/20 03:50:44;;;;;;;12.75;11.55;;;;;21.70;101621.00;;;;2048082;28;20729;-65
2021/11/20 03:51:44;;;;;;;11.65;10.65;;;;;21.70;101621.00;;;;2042083;28;20703;-65
2021/11/20 03:52:44;;;;;;;11.90;10.90;;;;;21.70;101618.00;;;;2048165;28;20298;-65
2021/11/20 03:53:45;;;;;;;11.93;10.87;;;;;21.70;101615.00;;;;2048054;28;20232;-65
2021/11/20 03:54:46;;;;;;;12.00;10.80;;;;;21.70;101617.00;;;;2047473;28;20267;-65
2021/11/20 03:55:48;;;;;;;12.20;11.02;;;;;21.70;101616.00;;;;2047015;28;20223;-65
2021/11/20 03:56:48;;;;;;;12.20;11.10;;;;;21.70;101623.00;;;;2048891;28;20208;-66
2021/11/20 03:57:48;;;;;;;11.40;10.30;;;;;21.70;101619.00;;;;2047119;28;20689;-66
2021/11/20 03:58:49;;;;;;;11.40;10.40;;;;;21.70;101621.00;;;;2048509;28;20722;-66
2021/11/20 03:59:49;;;;;;;12.63;11.43;;;;;21.70;101601.00;;;;2051861;28;20211;-66
2021/11/20 04:01:01;;;;;;;12.37;11.27;;;;;21.70;101623.00;;;;2048088;29;20220;-66
2021/11/20 04:02:02;;;;;;;11.65;10.55;;;;;21.70;101621.00;;;;2045381;29;20574;-66
2021/11/20 04:03:02;;;;;;;11.83;10.83;;;;;21.70;101625.00;;;;2048192;29;20216;-66
2021/11/20 04:04:03;;;;;;;12.97;11.77;;;;;21.70;101620.00;;;;2048045;29;20221;-66
2021/11/20 04:05:04;;;;;;;11.80;10.80;;;;;21.70;101627.00;;;;2046037;29;20213;-66
2021/11/20 04:06:06;;;;;;;12.05;10.90;;;;;21.70;101626.00;;;;2047877;28;20700;-66
2021/11/20 04:07:06;;;;;;;12.50;11.40;;;;;21.70;101627.00;;;;2047987;28;20228;-66
2021/11/20 04:08:06;;;;;;;9.90;9.00;;;;;21.60;101621.00;;;;2048068;29;20302;-65
2021/11/20 04:09:12;;;;;;;11.60;10.60;;;;;21.60;101625.00;;;;2047924;28;20224;-65
2021/11/20 04:10:12;;;;;;;10.77;9.68;;;;;21.60;101615.00;;;;2047909;29;20282;-65
2021/11/20 04:11:14;;;;;;;11.37;10.37;;;;;21.60;101622.00;;;;2048041;29;20290;-65
2021/11/20 04:12:14;;;;;;;11.65;10.65;;;;;21.60;101615.00;;;;2047578;29;20216;-65
2021/11/20 04:13:15;;;;;;;12.00;10.90;;;;;21.60;101625.00;;;;2048694;28;20699;-65
2021/11/20 04:14:16;;;;;;;11.03;10.13;;;;;21.60;101614.00;;;;2050695;28;20240;-65
2021/11/20 04:15:19;;;;;;;10.07;9.18;;;;;21.60;101618.00;;;;2048451;28;20209;-65
2021/11/20 04:16:20;;;;;;;11.65;10.55;;;;;21.60;101626.00;;;;2047470;28;20559;-66
2021/11/20 04:17:20;;;;;;;11.30;10.30;;;;;21.60;101616.00;;;;2048013;28;20279;-66
2021/11/20 04:18:20;;;;;;;11.57;10.47;;;;;21.60;101618.00;;;;2047957;28;20260;-66
2021/11/20 04:19:21;;;;;;;11.30;10.40;;;;;21.60;101618.00;;;;2048013;28;20239;-65
2021/11/20 04:20:22;;;;;;;12.03;10.97;;;;;21.60;101613.00;;;;2047999;28;20218;-65
2021/11/20 04:21:23;;;;;;;10.87;9.87;;;;;21.60;101617.00;;;;2047747;28;20223;-65
2021/11/20 04:22:23;;;;;;;12.83;11.63;;;;;21.60;101621.00;;;;2047598;28;20569;-65
2021/11/20 04:23:23;;;;;;;11.77;10.77;;;;;21.60;101623.00;;;;2047946;28;20220;-65
2021/11/20 04:24:24;;;;;;;11.53;10.43;;;;;21.60;101621.00;;;;2047796;28;20228;-65
2021/11/20 04:25:24;;;;;;;11.50;10.50;;;;;21.60;101615.00;;;;2047526;28;20216;-65
2021/11/20 04:26:25;;;;;;;11.63;10.53;;;;;21.60;101612.00;;;;2047276;28;20734;-65
2021/11/20 04:27:25;;;;;;;11.43;10.33;;;;;21.60;101612.00;;;;2047879;28;20239;-65
2021/11/20 04:28:25;;;;;;;10.53;9.63;;;;;21.60;101609.00;;;;2048094;28;20224;-65
2021/11/20 04:29:26;;;;;;;11.10;10.20;;;;;21.60;101614.00;;;;2047849;28;20694;-65
2021/11/20 04:30:26;;;;;;;11.23;10.20;;;;;21.60;101608.00;;;;2048058;28;20246;-65
2021/11/20 04:31:26;;;;;;;12.20;11.20;;;;;21.60;101614.00;;;;2047987;28;20212;-65
2021/11/20 04:32:27;;;;;;;11.20;10.10;;;;;21.60;101614.00;;;;2047917;28;20208;-65
2021/11/20 04:33:27;;;;;;;11.10;10.00;;;;;21.60;101607.00;;;;2047803;28;20687;-65
2021/11/20 04:34:27;;;;;;;13.23;12.07;;;;;21.60;101608.00;;;;2047453;28;20260;-65
2021/11/20 04:35:28;;;;;;;12.47;11.33;;;;;21.60;101604.00;;;;2047712;28;20208;-65
2021/11/20 04:36:29;;;;;;;12.87;11.67;;;;;21.60;101601.00;;;;2047944;28;20287;-65
2021/11/20 04:37:29;;;;;;;12.87;11.67;;;;;21.60;101601.00;;;;2047875;28;20220;-66
2021/11/20 04:38:29;;;;;;;12.43;11.33;;;;;21.60;101600.00;;;;2047573;28;20212;-66
2021/11/20 04:39:30;;;;;;;12.20;11.20;;;;;21.60;101600.00;;;;2047975;28;20687;-66
2021/11/20 04:40:30;;;;;;;11.90;10.90;;;;;21.60;101599.00;;;;2047879;28;20216;-66
2021/11/20 04:41:30;;;;;;;12.43;11.20;;;;;21.60;101600.00;;;;2047382;28;20208;-66
2021/11/20 04:42:31;;;;;;;11.73;10.63;;;;;21.50;101597.00;;;;2047804;28;20217;-66
2021/11/20 04:43:31;;;;;;;13.63;12.40;;;;;21.50;101602.00;;;;2047639;28;20215;-66
2021/11/20 04:44:31;;;;;;;13.13;11.90;;;;;21.50;101609.00;;;;2047141;28;20204;-66
2021/11/20 04:45:33;;;;;;;13.00;11.80;;;;;21.60;101600.00;;;;2047633;28;20236;-66
2021/11/20 04:46:33;;;;;;;13.40;12.20;;;;;21.60;101600.00;;;;2047657;28;20223;-66
2021/11/20 04:47:33;;;;;;;13.27;12.07;;;;;21.60;101598.00;;;;2047940;28;20231;-66
2021/11/20 04:48:34;;;;;;;13.20;12.07;;;;;21.60;101599.00;;;;2047766;28;20214;-66
2021/11/20 04:49:35;;;;;;;12.00;11.00;;;;;21.60;101593.00;;;;2047856;28;20208;-65
2021/11/20 04:50:35;;;;;;;12.33;11.23;;;;;21.50;101587.00;;;;2047517;28;20208;-65
2021/11/20 04:51:35;;;;;;;11.90;10.80;;;;;21.50;101590.00;;;;2047802;28;20480;-65
2021/11/20 04:52:36;;;;;;;11.87;10.67;;;;;21.50;101585.00;;;;2047725;28;20216;-66
2021/11/20 04:53:37;;;;;;;13.03;11.93;;;;;21.50;101591.00;;;;2047617;28;20212;-66
2021/11/20 04:54:38;;;;;;;12.57;11.38;;;;;21.50;101590.00;;;;2046170;28;20204;-66
2021/11/20 04:55:38;;;;;;;12.80;11.60;;;;;21.50;101581.00;;;;2043057;28;20232;-66
2021/11/20 04:56:38;;;;;;;12.20;11.10;;;;;21.50;101581.00;;;;2046666;28;20235;-66
2021/11/20 04:57:39;;;;;;;12.73;11.53;;;;;21.50;101587.00;;;;2047384;28;20569;-66
2021/11/20 04:58:40;;;;;;;12.50;11.40;;;;;21.50;101582.00;;;;2047420;28;20878;-66
2021/11/20 04:59:41;;;;;;;11.85;10.75;;;;;21.50;101587.00;;;;2047719;28;20355;-65
2021/11/20 05:00:48;;;;;;;11.67;10.57;;;;;21.60;101583.00;;;;2047523;28;20263;-65
2021/11/20 05:01:48;;;;;;;14.02;12.77;;;;;21.60;101581.00;;;;2047804;28;20216;-65
2021/11/20 05:02:48;;;;;;;13.50;12.10;;;;;21.60;101588.00;;;;2047629;28;20232;-65
2021/11/20 05:03:49;;;;;;;13.30;12.10;;;;;21.60;101585.00;;;;2047432;28;20225;-65